Time;durP1;ratioP1;P1;durP2;ratioP2;P2;SDS_P1;SDS_P2;PMS_P1;PMS_P2;Temp;Humidity;BMP_temperature;BMP_pressure;BME280_temperature;BME280_humidity;BME280_pressure;Samples;Min_cycle;Max_cycle;Signal;HPM_P1;HPM_P2
2022/03/24 00:01:57;;;;;;;;;;;4.70;88.80;;;;;;5046233;28;20048;-69
2022/03/24 00:04:24;;;;;;;;;;;4.70;89.30;;;;;;5054273;28;19921;-69
2022/03/24 00:06:52;;;;;;;;;;;4.70;89.70;;;;;;5065059;28;19927;-68
2022/03/24 00:09:19;;;;;;;;;;;4.70;89.70;;;;;;5065220;28;19921;-69
2022/03/24 00:11:46;;;;;;;;;;;4.70;89.50;;;;;;5046020;28;19928;-69
2022/03/24 00:14:13;;;;;;;;;;;4.70;89.60;;;;;;5045939;28;19975;-69
2022/03/24 00:16:40;;;;;;;;;;;4.60;90.10;;;;;;5057256;28;19921;-69
2022/03/24 00:19:07;;;;;;;;;;;4.50;89.60;;;;;;5065618;28;19921;-69
2022/03/24 00:21:34;;;;;;;;;;;4.40;89.70;;;;;;5064070;28;19954;-69
2022/03/24 00:24:02;;;;;;;;;;;4.40;90.00;;;;;;5065735;28;19920;-68
2022/03/24 00:26:28;;;;;;;;;;;4.30;89.70;;;;;;5064883;28;19928;-69
2022/03/24 00:28:55;;;;;;;;;;;4.30;89.70;;;;;;5053514;28;19921;-69
2022/03/24 00:31:21;;;;;;;;;;;4.20;89.80;;;;;;5045173;28;20219;-69
2022/03/24 00:33:48;;;;;;;;;;;4.20;89.80;;;;;;5063939;28;19924;-69
2022/03/24 00:36:15;;;;;;;;;;;4.20;89.70;;;;;;5060424;28;20290;-68
2022/03/24 00:38:42;;;;;;;;;;;4.10;89.20;;;;;;5045473;28;19921;-68
2022/03/24 00:41:11;;;;;;;;;;;4.10;88.00;;;;;;5045268;28;19921;-69
2022/03/24 00:43:37;;;;;;;;;;;4.00;88.30;;;;;;5045067;28;20255;-68
2022/03/24 00:46:04;;;;;;;;;;;3.90;88.60;;;;;;5049096;28;19928;-68
2022/03/24 00:48:30;;;;;;;;;;;3.90;88.90;;;;;;5080324;28;19966;-68
2022/03/24 00:50:57;;;;;;;;;;;3.90;89.40;;;;;;5064346;28;19927;-70
2022/03/24 00:53:24;;;;;;;;;;;3.90;89.90;;;;;;5062876;28;19928;-68
2022/03/24 00:55:51;;;;;;;;;;;3.90;89.90;;;;;;5064345;28;19959;-69
2022/03/24 00:58:19;;;;;;;;;;;3.80;90.40;;;;;;5060543;28;19928;-69
2022/03/24 01:00:46;;;;;;;;;;;3.80;90.10;;;;;;5064568;28;19920;-69
2022/03/24 01:03:12;;;;;;;;;;;3.80;90.30;;;;;;5064262;28;19963;-68
2022/03/24 01:05:39;;;;;;;;;;;3.80;90.30;;;;;;5064247;28;20287;-68
2022/03/24 01:08:08;;;;;;;;;;;3.80;90.60;;;;;;5047083;28;19921;-68
2022/03/24 01:10:35;;;;;;;;;;;3.70;90.70;;;;;;5044496;28;20164;-68
2022/03/24 01:13:01;;;;;;;;;;;3.70;90.90;;;;;;5044720;28;19921;-69
2022/03/24 01:15:30;;;;;;;;;;;3.60;91.00;;;;;;5050685;28;19920;-68
2022/03/24 01:18:00;;;;;;;;;;;3.60;91.10;;;;;;5064180;28;19959;-68
2022/03/24 01:20:27;;;;;;;;;;;3.50;91.10;;;;;;5064515;28;19921;-68
2022/03/24 01:22:54;;;;;;;;;;;3.50;91.20;;;;;;5064003;28;19927;-69
2022/03/24 01:25:23;;;;;;;;;;;3.50;91.20;;;;;;5064048;28;19948;-68
2022/03/24 01:27:49;;;;;;;;;;;3.50;91.10;;;;;;5063726;28;19944;-68
2022/03/24 01:30:16;;;;;;;;;;;3.40;91.30;;;;;;5063940;28;19929;-68
2022/03/24 01:32:45;;;;;;;;;;;3.40;91.40;;;;;;5064147;28;19920;-68
2022/03/24 01:35:11;;;;;;;;;;;3.40;91.50;;;;;;5063845;28;19928;-69
2022/03/24 01:37:38;;;;;;;;;;;3.30;91.70;;;;;;5050898;28;19920;-68
2022/03/24 01:40:05;;;;;;;;;;;3.30;91.90;;;;;;5063615;28;19942;-69
2022/03/24 01:42:34;;;;;;;;;;;3.30;91.80;;;;;;5064319;28;19921;-69
2022/03/24 01:45:00;;;;;;;;;;;3.30;92.00;;;;;;5063407;28;20208;-68
2022/03/24 01:47:27;;;;;;;;;;;3.20;92.10;;;;;;5063409;28;19921;-69
2022/03/24 01:49:58;;;;;;;;;;;3.20;92.10;;;;;;5063778;28;19920;-69
2022/03/24 01:52:25;;;;;;;;;;;3.20;92.20;;;;;;5061391;28;19921;-69
2022/03/24 01:54:53;;;;;;;;;;;3.20;92.30;;;;;;5063767;28;19921;-68
2022/03/24 01:57:20;;;;;;;;;;;3.20;92.60;;;;;;5063101;28;19935;-69
2022/03/24 01:59:49;;;;;;;;;;;3.20;92.60;;;;;;5075126;28;20198;-68
2022/03/24 02:02:16;;;;;;;;;;;3.10;92.70;;;;;;5074680;28;19921;-68
2022/03/24 02:04:43;;;;;;;;;;;3.10;93.00;;;;;;5063431;28;19983;-69
2022/03/24 02:07:11;;;;;;;;;;;3.20;93.30;;;;;;5062512;28;19921;-69
2022/03/24 02:09:38;;;;;;;;;;;3.10;93.30;;;;;;5043413;28;19921;-68
2022/03/24 02:12:06;;;;;;;;;;;3.10;93.30;;;;;;5051016;28;19921;-69
2022/03/24 02:14:32;;;;;;;;;;;3.00;93.40;;;;;;5063322;28;19927;-69
2022/03/24 02:16:59;;;;;;;;;;;3.00;93.50;;;;;;5062722;28;19921;-68
2022/03/24 02:19:26;;;;;;;;;;;3.00;93.60;;;;;;5059282;28;19921;-69
2022/03/24 02:21:53;;;;;;;;;;;2.90;93.70;;;;;;5043253;28;19959;-68
2022/03/24 02:24:22;;;;;;;;;;;2.90;93.90;;;;;;5043630;28;20111;-69
2022/03/24 02:26:50;;;;;;;;;;;2.90;94.10;;;;;;5061736;28;19931;-69
2022/03/24 02:29:17;;;;;;;;;;;2.80;94.00;;;;;;5063193;28;19963;-68
2022/03/24 02:31:46;;;;;;;;;;;2.80;94.20;;;;;;5055131;28;19921;-69
2022/03/24 02:36:58;;;;;;;;;;;2.70;94.80;;;;;;5062363;28;19924;-68
2022/03/24 02:39:25;;;;;;;;;;;2.60;94.90;;;;;;5046583;28;19960;-68
2022/03/24 02:41:53;;;;;;;;;;;2.60;95.10;;;;;;5081676;28;19929;-68
2022/03/24 02:44:20;;;;;;;;;;;2.60;95.10;;;;;;5072349;28;19925;-68
2022/03/24 02:46:47;;;;;;;;;;;2.60;95.20;;;;;;5062328;28;19927;-69
2022/03/24 02:49:14;;;;;;;;;;;2.50;95.20;;;;;;5062499;28;19956;-68
2022/03/24 02:51:40;;;;;;;;;;;2.50;95.20;;;;;;5060868;28;19928;-68
2022/03/24 02:54:07;;;;;;;;;;;2.50;95.00;;;;;;5073972;28;19927;-69
2022/03/24 02:56:35;;;;;;;;;;;2.50;95.00;;;;;;5068318;28;19952;-69
2022/03/24 02:59:04;;;;;;;;;;;2.40;95.20;;;;;;5083310;22;19916;-69
2022/03/24 03:01:31;;;;;;;;;;;2.40;95.50;;;;;;5102270;28;19920;-67
2022/03/24 03:03:57;;;;;;;;;;;2.40;95.40;;;;;;5095524;28;20126;-67
2022/03/24 03:06:24;;;;;;;;;;;2.40;95.50;;;;;;5083701;28;20208;-66
2022/03/24 03:08:51;;;;;;;;;;;2.40;95.50;;;;;;5113684;28;19983;-66
2022/03/24 03:11:17;;;;;;;;;;;2.30;95.60;;;;;;5123272;28;19920;-67
2022/03/24 03:13:45;;;;;;;;;;;2.30;95.70;;;;;;5121712;28;19926;-67
2022/03/24 03:16:12;;;;;;;;;;;2.20;95.80;;;;;;5124273;28;19926;-66
2022/03/24 03:18:41;;;;;;;;;;;2.30;96.10;;;;;;5118829;28;19928;-66
2022/03/24 03:21:08;;;;;;;;;;;2.30;96.20;;;;;;5108323;28;19920;-67
2022/03/24 03:23:37;;;;;;;;;;;2.30;96.10;;;;;;5128227;28;19920;-69
2022/03/24 03:26:04;;;;;;;;;;;2.30;95.90;;;;;;5126828;28;19920;-67
2022/03/24 03:28:31;;;;;;;;;;;2.20;95.80;;;;;;5127104;28;19920;-68
2022/03/24 03:30:59;;;;;;;;;;;2.20;95.80;;;;;;5132641;27;19927;-67
2022/03/24 03:33:26;;;;;;;;;;;2.10;95.90;;;;;;5147830;27;19923;-67
2022/03/24 03:35:52;;;;;;;;;;;2.00;96.10;;;;;;5147567;27;20114;-67
2022/03/24 03:38:19;;;;;;;;;;;2.00;96.20;;;;;;5132416;27;19920;-68
2022/03/24 03:40:46;;;;;;;;;;;2.00;96.30;;;;;;5126353;28;20162;-67
2022/03/24 03:43:14;;;;;;;;;;;1.90;96.40;;;;;;5140925;27;19920;-67
2022/03/24 03:45:41;;;;;;;;;;;1.90;96.50;;;;;;5146943;27;19927;-67
2022/03/24 03:48:09;;;;;;;;;;;1.90;96.80;;;;;;5147365;27;20287;-68
2022/03/24 03:50:36;;;;;;;;;;;1.80;96.90;;;;;;5147497;27;19926;-68
2022/03/24 03:53:02;;;;;;;;;;;1.80;97.20;;;;;;5132666;27;19920;-67
2022/03/24 03:55:29;;;;;;;;;;;1.80;97.60;;;;;;5145042;27;19926;-67
2022/03/24 03:57:56;;;;;;;;;;;1.80;97.90;;;;;;5147119;27;20206;-68
2022/03/24 04:03:09;;;;;;;;;;;1.70;98.50;;;;;;5147369;27;19922;-69
2022/03/24 04:05:35;;;;;;;;;;;1.70;98.80;;;;;;5144586;27;20191;-67
2022/03/24 04:08:02;;;;;;;;;;;1.70;99.10;;;;;;5146758;27;19919;-67
2022/03/24 04:10:30;;;;;;;;;;;1.70;99.30;;;;;;5146587;27;19919;-68
2022/03/24 04:12:57;;;;;;;;;;;1.70;99.50;;;;;;5147063;27;19964;-68
2022/03/24 04:15:24;;;;;;;;;;;1.70;99.60;;;;;;5146900;27;20209;-67
2022/03/24 04:17:51;;;;;;;;;;;1.70;99.80;;;;;;5146565;27;19919;-68
2022/03/24 04:20:20;;;;;;;;;;;1.70;99.90;;;;;;5141035;27;20134;-67
2022/03/24 04:22:48;;;;;;;;;;;1.70;99.90;;;;;;5125924;28;19920;-67
2022/03/24 04:25:14;;;;;;;;;;;1.70;99.90;;;;;;5126150;28;19924;-69
2022/03/24 04:27:41;;;;;;;;;;;1.60;99.90;;;;;;5124687;28;20188;-67
2022/03/24 04:30:09;;;;;;;;;;;1.60;99.90;;;;;;5125652;27;19920;-67
2022/03/24 04:32:35;;;;;;;;;;;1.60;99.90;;;;;;5125775;28;19920;-67
2022/03/24 04:35:02;;;;;;;;;;;1.50;99.90;;;;;;5125964;28;19921;-69
2022/03/24 04:37:30;;;;;;;;;;;1.50;99.90;;;;;;5125209;28;19920;-67
2022/03/24 04:39:56;;;;;;;;;;;1.40;99.90;;;;;;5125611;28;19928;-67
2022/03/24 04:42:23;;;;;;;;;;;1.40;99.90;;;;;;5125699;28;19920;-69
2022/03/24 04:44:49;;;;;;;;;;;1.40;99.90;;;;;;5125603;28;19990;-67
2022/03/24 04:47:16;;;;;;;;;;;1.40;99.90;;;;;;5128702;27;19926;-67
2022/03/24 04:49:43;;;;;;;;;;;1.30;99.90;;;;;;5146084;27;19919;-67
2022/03/24 04:52:09;;;;;;;;;;;1.30;99.90;;;;;;5145138;27;19920;-67
2022/03/24 04:54:37;;;;;;;;;;;1.20;99.90;;;;;;5146104;27;19926;-67
2022/03/24 04:57:04;;;;;;;;;;;1.20;99.90;;;;;;5140932;27;19935;-67
2022/03/24 04:59:31;;;;;;;;;;;1.20;99.90;;;;;;5132635;27;20173;-67
2022/03/24 05:01:58;;;;;;;;;;;1.20;99.90;;;;;;5146035;27;19920;-68
2022/03/24 05:04:25;;;;;;;;;;;1.10;99.90;;;;;;5146466;27;19920;-67
2022/03/24 05:06:51;;;;;;;;;;;1.10;99.90;;;;;;5144879;27;20111;-69
2022/03/24 05:09:18;;;;;;;;;;;1.10;99.90;;;;;;5145878;27;19925;-68
2022/03/24 05:11:46;;;;;;;;;;;1.10;99.90;;;;;;5130274;27;19930;-67
2022/03/24 05:14:13;;;;;;;;;;;1.10;99.90;;;;;;5124824;28;20199;-67
2022/03/24 05:16:40;;;;;;;;;;;1.10;99.90;;;;;;5124889;28;19926;-67
2022/03/24 05:19:06;;;;;;;;;;;1.10;99.90;;;;;;5124651;28;19920;-67
2022/03/24 05:21:33;;;;;;;;;;;1.10;99.90;;;;;;5124867;28;19928;-66
2022/03/24 05:24:00;;;;;;;;;;;1.10;99.90;;;;;;5124862;28;19920;-69
2022/03/24 05:26:27;;;;;;;;;;;1.00;99.90;;;;;;5124520;28;19926;-67
2022/03/24 05:28:55;;;;;;;;;;;1.00;99.90;;;;;;5128345;27;19926;-67
2022/03/24 05:31:22;;;;;;;;;;;1.00;99.90;;;;;;5124042;27;19920;-67
2022/03/24 05:33:48;;;;;;;;;;;0.90;99.90;;;;;;5124467;28;19927;-67
2022/03/24 05:36:15;;;;;;;;;;;0.90;99.90;;;;;;5143192;27;19925;-67
2022/03/24 05:38:42;;;;;;;;;;;1.00;99.90;;;;;;5128849;27;20195;-68
2022/03/24 05:41:13;;;;;;;;;;;0.90;99.90;;;;;;5123266;28;19927;-67
2022/03/24 05:43:39;;;;;;;;;;;0.90;99.90;;;;;;5124637;28;20220;-67
2022/03/24 05:46:07;;;;;;;;;;;0.90;99.90;;;;;;5123429;28;19920;-67
2022/03/24 05:48:34;;;;;;;;;;;0.90;99.90;;;;;;5124668;28;19970;-67
2022/03/24 05:51:00;;;;;;;;;;;1.00;99.90;;;;;;5123140;28;19920;-72
2022/03/24 05:53:28;;;;;;;;;;;0.90;99.90;;;;;;5123511;28;19920;-66
2022/03/24 05:55:54;;;;;;;;;;;1.00;99.90;;;;;;5123616;28;20203;-66
2022/03/24 05:58:21;;;;;;;;;;;0.90;99.90;;;;;;5124343;28;19923;-67
2022/03/24 06:00:47;;;;;;;;;;;0.90;99.90;;;;;;5125244;27;20112;-67
2022/03/24 06:03:16;;;;;;;;;;;0.90;99.90;;;;;;5124062;28;19999;-67
2022/03/24 06:05:44;;;;;;;;;;;0.90;99.90;;;;;;5123830;28;19920;-67
2022/03/24 06:08:11;;;;;;;;;;;0.90;99.90;;;;;;5123927;28;20111;-67
2022/03/24 06:10:39;;;;;;;;;;;0.90;99.90;;;;;;5124001;28;20153;-67
2022/03/24 06:13:06;;;;;;;;;;;0.90;99.90;;;;;;5124166;28;20264;-68
2022/03/24 06:15:33;;;;;;;;;;;0.90;99.90;;;;;;5128884;27;19959;-66
2022/03/24 06:18:00;;;;;;;;;;;0.90;99.90;;;;;;5144509;27;19926;-67
2022/03/24 06:20:28;;;;;;;;;;;0.90;99.90;;;;;;5144558;27;19965;-66
2022/03/24 06:22:55;;;;;;;;;;;1.00;99.90;;;;;;5144258;27;19941;-67
2022/03/24 06:25:21;;;;;;;;;;;1.00;99.90;;;;;;5143807;27;19950;-67
2022/03/24 06:27:49;;;;;;;;;;;1.10;99.90;;;;;;5139450;27;19927;-67
2022/03/24 06:30:16;;;;;;;;;;;1.10;99.90;;;;;;5133964;27;20227;-67
2022/03/24 06:32:43;;;;;;;;;;;1.20;99.90;;;;;;5144000;27;19955;-66
2022/03/24 06:35:11;;;;;;;;;;;1.20;99.90;;;;;;5144002;27;19923;-68
2022/03/24 06:37:40;;;;;;;;;;;1.30;99.90;;;;;;5144018;27;20189;-66
2022/03/24 06:40:08;;;;;;;;;;;1.40;99.90;;;;;;5143912;27;19920;-67
2022/03/24 06:42:34;;;;;;;;;;;1.40;99.90;;;;;;5139862;28;19933;-67
2022/03/24 06:45:01;;;;;;;;;;;1.40;99.90;;;;;;5123410;28;20207;-67
2022/03/24 06:47:28;;;;;;;;;;;1.50;99.90;;;;;;5123495;28;19927;-67
2022/03/24 06:49:54;;;;;;;;;;;1.60;99.90;;;;;;5123470;28;20122;-68
2022/03/24 06:52:21;;;;;;;;;;;1.60;99.90;;;;;;5124240;28;19920;-67
2022/03/24 06:54:49;;;;;;;;;;;1.60;99.90;;;;;;5127662;28;19923;-67
2022/03/24 06:57:15;;;;;;;;;;;1.70;99.90;;;;;;5131788;27;19991;-66
2022/03/24 06:59:42;;;;;;;;;;;1.80;99.90;;;;;;5142973;27;19920;-67
2022/03/24 07:02:09;;;;;;;;;;;1.90;99.90;;;;;;5127706;28;19942;-67
2022/03/24 07:04:36;;;;;;;;;;;1.90;99.90;;;;;;5144714;27;19920;-66
2022/03/24 07:07:03;;;;;;;;;;;2.00;99.90;;;;;;5148103;27;19926;-68
2022/03/24 07:09:30;;;;;;;;;;;2.20;99.90;;;;;;5145307;27;19942;-67
2022/03/24 07:11:58;;;;;;;;;;;2.20;99.90;;;;;;5130542;27;19934;-67
2022/03/24 07:14:25;;;;;;;;;;;2.30;99.90;;;;;;5127331;28;19919;-67
2022/03/24 07:16:51;;;;;;;;;;;2.50;99.90;;;;;;5126960;28;19920;-67
2022/03/24 07:19:18;;;;;;;;;;;2.60;99.90;;;;;;5127214;28;19955;-67
2022/03/24 07:21:45;;;;;;;;;;;2.60;99.90;;;;;;5137651;27;20127;-66
2022/03/24 07:24:12;;;;;;;;;;;2.70;99.90;;;;;;5116529;28;19927;-68
2022/03/24 07:26:39;;;;;;;;;;;2.80;99.90;;;;;;5126833;27;20254;-67
2022/03/24 07:29:06;;;;;;;;;;;2.90;99.90;;;;;;5127240;28;19926;-69
2022/03/24 07:31:34;;;;;;;;;;;3.00;99.90;;;;;;5123598;28;20207;-66
2022/03/24 07:34:01;;;;;;;;;;;3.10;99.90;;;;;;5117524;28;19920;-71
2022/03/24 07:36:28;;;;;;;;;;;3.20;99.90;;;;;;5125232;28;19920;-69
2022/03/24 07:38:56;;;;;;;;;;;3.30;99.90;;;;;;5133153;27;19920;-67
2022/03/24 07:41:23;;;;;;;;;;;3.50;99.90;;;;;;5140887;27;20234;-68
2022/03/24 07:43:50;;;;;;;;;;;3.60;99.90;;;;;;5126695;28;19930;-68
2022/03/24 07:46:18;;;;;;;;;;;3.80;99.90;;;;;;5126145;28;19979;-68
2022/03/24 07:48:46;;;;;;;;;;;3.90;99.90;;;;;;5126778;28;20265;-67
2022/03/24 07:51:13;;;;;;;;;;;4.10;99.90;;;;;;5126207;27;20262;-68
2022/03/24 07:53:50;;;;;;;;;;;4.30;99.90;;;;;;5126893;28;20027;-69
2022/03/24 07:56:18;;;;;;;;;;;4.50;99.90;;;;;;5130533;27;20133;-67
2022/03/24 07:58:44;;;;;;;;;;;4.70;99.90;;;;;;5146793;27;19926;-69
2022/03/24 08:01:11;;;;;;;;;;;4.90;99.90;;;;;;5131807;27;19926;-68
2022/03/24 08:03:39;;;;;;;;;;;5.10;99.90;;;;;;5126032;28;19926;-68
2022/03/24 08:06:06;;;;;;;;;;;5.30;99.90;;;;;;5125189;28;20122;-68
2022/03/24 08:08:32;;;;;;;;;;;5.50;99.90;;;;;;5138806;27;19919;-67
2022/03/24 08:10:59;;;;;;;;;;;5.70;99.90;;;;;;5129249;27;20222;-68
2022/03/24 08:13:26;;;;;;;;;;;5.80;99.90;;;;;;5129714;27;19972;-67
2022/03/24 08:15:52;;;;;;;;;;;5.90;99.90;;;;;;5146336;27;19925;-68
2022/03/24 08:18:20;;;;;;;;;;;6.00;99.90;;;;;;5147208;27;20214;-69
2022/03/24 08:20:49;;;;;;;;;;;6.10;99.90;;;;;;5125534;27;19926;-68
2022/03/24 08:23:16;;;;;;;;;;;6.20;99.90;;;;;;5126207;28;19920;-68
2022/03/24 08:25:44;;;;;;;;;;;6.30;99.90;;;;;;5125619;28;19919;-68
2022/03/24 08:28:12;;;;;;;;;;;6.40;99.90;;;;;;5126453;28;19920;-68
2022/03/24 08:30:38;;;;;;;;;;;6.70;99.90;;;;;;5124742;28;19919;-68
2022/03/24 08:33:06;;;;;;;;;;;6.90;99.90;;;;;;5139128;27;19926;-68
2022/03/24 08:35:33;;;;;;;;;;;7.10;99.90;;;;;;5125557;28;19919;-67
2022/03/24 08:38:01;;;;;;;;;;;7.30;99.90;;;;;;5126077;28;19943;-66
2022/03/24 08:40:27;;;;;;;;;;;7.50;99.90;;;;;;5116549;28;19973;-69
2022/03/24 08:42:54;;;;;;;;;;;7.70;99.90;;;;;;5124099;28;19920;-67
2022/03/24 08:45:20;;;;;;;;;;;7.80;99.90;;;;;;5125905;28;19920;-67
2022/03/24 08:47:47;;;;;;;;;;;8.00;99.90;;;;;;5126121;28;19920;-66
2022/03/24 08:50:14;;;;;;;;;;;8.10;99.90;;;;;;5125723;28;19920;-67
2022/03/24 08:52:41;;;;;;;;;;;8.20;99.90;;;;;;5126027;28;19920;-67
2022/03/24 08:55:11;;;;;;;;;;;8.40;99.90;;;;;;5125375;28;19928;-67
2022/03/24 08:57:38;;;;;;;;;;;8.50;99.90;;;;;;5125109;28;19919;-67
2022/03/24 09:00:07;;;;;;;;;;;8.70;99.60;;;;;;5126873;22;19933;-88
2022/03/24 09:02:35;;;;;;;;;;;9.00;99.30;;;;;;5065816;28;19921;-89
2022/03/24 09:05:02;;;;;;;;;;;9.10;97.40;;;;;;5065658;28;19921;-89
2022/03/24 09:07:29;;;;;;;;;;;9.20;96.90;;;;;;5065377;28;19921;-88
2022/03/24 09:09:55;;;;;;;;;;;9.30;97.20;;;;;;5065573;28;19920;-89
2022/03/24 09:12:24;;;;;;;;;;;9.50;96.50;;;;;;5053925;28;19984;-90
2022/03/24 09:14:51;;;;;;;;;;;9.60;95.50;;;;;;5074212;22;19920;-69
2022/03/24 09:17:17;;;;;;;;;;;9.70;95.50;;;;;;5044870;28;19928;-72
2022/03/24 09:19:44;;;;;;;;;;;9.90;94.70;;;;;;5053184;28;20099;-67
2022/03/24 09:22:11;;;;;;;;;;;10.10;94.50;;;;;;5064587;28;19925;-68
2022/03/24 09:24:41;;;;;;;;;;;10.40;94.90;;;;;;5063998;28;20128;-67
2022/03/24 09:27:08;;;;;;;;;;;10.50;94.40;;;;;;5061422;28;20212;-68
2022/03/24 09:29:36;;;;;;;;;;;10.60;94.20;;;;;;5045107;28;20235;-69
2022/03/24 09:32:03;;;;;;;;;;;10.70;94.00;;;;;;5044094;28;19965;-67
2022/03/24 09:34:30;;;;;;;;;;;10.90;93.50;;;;;;5025935;28;19921;-67
2022/03/24 09:36:57;;;;;;;;;;;11.00;93.10;;;;;;5021579;28;20108;-67
2022/03/24 09:39:24;;;;;;;;;;;11.00;92.90;;;;;;5024892;28;19922;-67
2022/03/24 09:41:52;;;;;;;;;;;11.10;93.00;;;;;;5030461;28;20101;-64
2022/03/24 09:44:19;;;;;;;;;;;11.20;93.50;;;;;;5043450;28;19921;-64
2022/03/24 09:46:47;;;;;;;;;;;11.30;93.80;;;;;;5042759;28;19927;-64
2022/03/24 09:49:14;;;;;;;;;;;11.50;93.30;;;;;;5043766;28;19921;-65
2022/03/24 09:51:42;;;;;;;;;;;11.60;93.10;;;;;;5043954;28;19927;-64
2022/03/24 09:54:10;;;;;;;;;;;11.70;93.30;;;;;;5042981;28;19928;-64
2022/03/24 09:56:36;;;;;;;;;;;11.90;93.60;;;;;;5043108;28;19932;-64
2022/03/24 09:59:03;;;;;;;;;;;12.00;92.60;;;;;;5043132;28;19955;-64
2022/03/24 10:01:30;;;;;;;;;;;12.20;92.30;;;;;;5043363;28;19921;-63
2022/03/24 10:04:06;;;;;;;;;;;12.30;92.80;;;;;;5049354;28;20217;-64
2022/03/24 10:06:32;;;;;;;;;;;12.40;92.30;;;;;;5043297;28;19928;-63
2022/03/24 10:08:59;;;;;;;;;;;12.70;92.70;;;;;;5048045;28;19927;-64
2022/03/24 10:11:28;;;;;;;;;;;12.90;91.90;;;;;;5040266;28;19929;-64
2022/03/24 10:13:55;;;;;;;;;;;13.10;91.60;;;;;;5050506;28;19921;-64
2022/03/24 10:16:40;;;;;;;;;;;13.30;91.60;;;;;;5062075;28;19948;-64
2022/03/24 10:19:09;;;;;;;;;;;13.50;90.20;;;;;;5059079;28;19944;-65
2022/03/24 10:21:36;;;;;;;;;;;13.70;90.40;;;;;;5056532;28;19921;-65
2022/03/24 10:24:07;;;;;;;;;;;13.80;90.10;;;;;;5079597;28;20280;-64
2022/03/24 10:26:47;;;;;;;;;;;14.00;90.00;;;;;;5062713;28;20116;-65
2022/03/24 10:29:15;;;;;;;;;;;14.20;87.80;;;;;;5060348;28;20123;-66
2022/03/24 10:31:43;;;;;;;;;;;14.40;85.60;;;;;;5060196;28;19921;-65
2022/03/24 10:34:11;;;;;;;;;;;14.70;83.80;;;;;;5055180;28;20144;-65
2022/03/24 10:36:41;;;;;;;;;;;14.90;82.70;;;;;;5042754;28;19921;-64
2022/03/24 10:39:08;;;;;;;;;;;15.00;82.80;;;;;;5040391;28;19928;-65
2022/03/24 10:41:35;;;;;;;;;;;15.20;78.60;;;;;;5043471;28;19921;-67
2022/03/24 10:44:07;;;;;;;;;;;15.30;76.20;;;;;;5058606;28;19921;-65
2022/03/24 10:46:34;;;;;;;;;;;15.50;77.50;;;;;;5062513;28;19920;-65
2022/03/24 10:49:15;;;;;;;;;;;15.70;80.90;;;;;;5063215;28;19943;-65
2022/03/24 10:51:43;;;;;;;;;;;15.90;79.10;;;;;;5043027;28;19929;-65
2022/03/24 10:54:14;;;;;;;;;;;16.00;71.80;;;;;;5043029;28;20216;-64
2022/03/24 10:56:45;;;;;;;;;;;16.10;73.20;;;;;;5042733;28;19952;-65
2022/03/24 10:59:12;;;;;;;;;;;16.30;76.40;;;;;;5043064;28;20208;-65
2022/03/24 11:01:39;;;;;;;;;;;16.40;76.40;;;;;;5044091;28;19947;-65
2022/03/24 11:04:05;;;;;;;;;;;16.50;74.20;;;;;;5047424;28;20120;-66
2022/03/24 11:06:32;;;;;;;;;;;16.60;73.00;;;;;;5061186;28;19921;-68
2022/03/24 11:09:01;;;;;;;;;;;16.70;72.40;;;;;;5060893;28;19928;-69
2022/03/24 11:11:28;;;;;;;;;;;16.80;71.40;;;;;;5062726;28;19927;-69
2022/03/24 11:13:55;;;;;;;;;;;16.80;72.50;;;;;;5050592;28;19925;-67
2022/03/24 11:16:23;;;;;;;;;;;16.90;74.10;;;;;;5042507;28;19927;-68
2022/03/24 11:18:50;;;;;;;;;;;17.00;73.70;;;;;;5042944;28;19928;-69
2022/03/24 11:21:21;;;;;;;;;;;17.10;73.30;;;;;;5042810;28;20209;-69
2022/03/24 11:23:47;;;;;;;;;;;17.30;72.80;;;;;;5042830;28;19921;-69
2022/03/24 11:26:15;;;;;;;;;;;17.30;70.60;;;;;;5041878;28;19922;-68
2022/03/24 11:28:46;;;;;;;;;;;17.40;71.20;;;;;;5038162;28;19929;-68
2022/03/24 11:31:14;;;;;;;;;;;17.50;71.40;;;;;;5042560;28;19921;-68
2022/03/24 11:33:42;;;;;;;;;;;17.60;70.20;;;;;;5042734;28;19927;-68
2022/03/24 11:36:09;;;;;;;;;;;17.70;69.80;;;;;;5042309;28;19921;-68
2022/03/24 11:38:37;;;;;;;;;;;17.80;68.70;;;;;;5046202;28;19943;-68
2022/03/24 11:41:04;;;;;;;;;;;17.90;70.20;;;;;;5046499;28;19921;-67
2022/03/24 11:43:33;;;;;;;;;;;18.10;68.60;;;;;;5046478;28;20204;-67
2022/03/24 11:46:03;;;;;;;;;;;18.30;67.50;;;;;;5043721;28;19921;-68
2022/03/24 11:48:34;;;;;;;;;;;18.40;67.40;;;;;;5046235;28;19943;-67
2022/03/24 11:51:05;;;;;;;;;;;18.50;65.90;;;;;;5057685;28;20263;-68
2022/03/24 11:53:39;;;;;;;;;;;18.70;67.20;;;;;;5046087;28;19921;-68
2022/03/24 11:56:16;;;;;;;;;;;18.80;64.50;;;;;;5043268;28;20144;-68
2022/03/24 11:59:01;;;;;;;;;;;18.80;64.20;;;;;;5044449;28;20131;-68
2022/03/24 12:01:31;;;;;;;;;;;18.90;63.90;;;;;;5038684;28;19925;-68
2022/03/24 12:04:03;;;;;;;;;;;18.80;65.40;;;;;;5062353;28;20231;-67
2022/03/24 12:06:52;;;;;;;;;;;18.80;64.30;;;;;;5064828;28;19927;-68
2022/03/24 12:09:25;;;;;;;;;;;18.70;61.50;;;;;;5047339;28;20093;-67
2022/03/24 12:11:53;;;;;;;;;;;18.60;61.30;;;;;;5043225;28;19968;-67
2022/03/24 12:14:21;;;;;;;;;;;18.60;61.20;;;;;;5045892;28;20252;-68
2022/03/24 12:16:50;;;;;;;;;;;18.70;60.50;;;;;;5057314;28;19932;-68
2022/03/24 12:19:40;;;;;;;;;;;19.00;60.30;;;;;;5045472;28;19921;-67
2022/03/24 12:22:25;;;;;;;;;;;19.20;60.20;;;;;;5056476;28;20228;-68
2022/03/24 12:24:52;;;;;;;;;;;19.30;59.10;;;;;;5049922;28;19921;-68
2022/03/24 12:27:19;;;;;;;;;;;19.30;58.50;;;;;;5044687;28;19925;-68
2022/03/24 12:30:07;;;;;;;;;;;19.40;57.00;;;;;;5052011;28;19931;-68
2022/03/24 12:32:35;;;;;;;;;;;19.60;58.20;;;;;;5061517;28;19964;-68
2022/03/24 12:35:03;;;;;;;;;;;19.80;57.40;;;;;;5032316;28;19966;-69
2022/03/24 12:37:39;;;;;;;;;;;20.00;58.70;;;;;;5058505;28;19924;-68
2022/03/24 12:40:12;;;;;;;;;;;20.20;55.20;;;;;;5045524;28;19921;-68
2022/03/24 12:42:39;;;;;;;;;;;20.30;55.30;;;;;;5045506;28;20089;-68
2022/03/24 12:45:07;;;;;;;;;;;20.40;55.40;;;;;;5045390;28;19928;-67
2022/03/24 12:47:36;;;;;;;;;;;20.60;54.60;;;;;;5048871;28;19920;-68
2022/03/24 12:50:24;;;;;;;;;;;20.80;55.00;;;;;;5056281;28;20120;-65
2022/03/24 12:52:51;;;;;;;;;;;21.00;55.80;;;;;;5045095;28;20044;-66
2022/03/24 12:55:22;;;;;;;;;;;21.30;55.30;;;;;;5044725;28;19921;-68
2022/03/24 12:57:55;;;;;;;;;;;21.30;54.60;;;;;;5045073;28;20166;-68
2022/03/24 13:00:23;;;;;;;;;;;21.10;54.50;;;;;;5044766;28;19925;-67
2022/03/24 13:02:51;;;;;;;;;;;21.00;53.90;;;;;;5044575;28;19921;-67
2022/03/24 13:05:22;;;;;;;;;;;20.90;53.70;;;;;;5044072;28;19921;-67
2022/03/24 13:07:50;;;;;;;;;;;21.00;53.70;;;;;;5049728;28;19928;-67
2022/03/24 13:10:16;;;;;;;;;;;21.00;54.80;;;;;;5046798;28;19932;-67
2022/03/24 13:12:44;;;;;;;;;;;21.10;55.00;;;;;;5047701;28;19925;-67
2022/03/24 13:15:22;;;;;;;;;;;21.20;53.60;;;;;;5075978;28;19921;-67
2022/03/24 13:17:50;;;;;;;;;;;21.00;54.60;;;;;;5074282;28;20203;-67
2022/03/24 13:20:19;;;;;;;;;;;21.20;54.10;;;;;;5075116;28;19928;-67
2022/03/24 13:22:47;;;;;;;;;;;21.30;54.80;;;;;;5067963;28;19933;-66
2022/03/24 13:25:15;;;;;;;;;;;21.30;55.10;;;;;;5063377;28;19980;-67
2022/03/24 13:27:45;;;;;;;;;;;21.30;54.10;;;;;;5061286;28;19959;-67
2022/03/24 13:30:14;;;;;;;;;;;21.40;56.20;;;;;;5066420;28;19921;-67
2022/03/24 13:32:42;;;;;;;;;;;21.60;54.50;;;;;;5064128;28;19921;-68
2022/03/24 13:35:09;;;;;;;;;;;21.50;55.30;;;;;;5069675;28;19940;-68
2022/03/24 13:37:38;;;;;;;;;;;21.70;55.50;;;;;;5083048;28;19921;-67
2022/03/24 13:40:08;;;;;;;;;;;22.00;55.80;;;;;;5084099;28;20056;-68
2022/03/24 13:42:35;;;;;;;;;;;22.10;54.50;;;;;;5064829;28;19921;-68
2022/03/24 13:45:02;;;;;;;;;;;21.90;54.00;;;;;;5063788;28;20211;-67
2022/03/24 13:47:29;;;;;;;;;;;21.90;54.60;;;;;;5065790;28;19920;-68
2022/03/24 13:49:57;;;;;;;;;;;21.80;53.20;;;;;;5072772;28;19960;-67
2022/03/24 13:52:34;;;;;;;;;;;21.70;54.00;;;;;;5081120;28;20015;-68
2022/03/24 13:55:13;;;;;;;;;;;21.50;54.40;;;;;;5063417;28;19920;-67
2022/03/24 13:57:47;;;;;;;;;;;21.50;53.60;;;;;;5063517;28;19928;-67
2022/03/24 14:00:22;;;;;;;;;;;21.70;54.80;;;;;;5081323;28;19926;-70
2022/03/24 14:02:54;;;;;;;;;;;21.70;54.30;;;;;;5084118;28;19927;-67
2022/03/24 14:05:21;;;;;;;;;;;21.70;53.50;;;;;;5070432;28;19929;-67
2022/03/24 14:07:57;;;;;;;;;;;22.00;54.50;;;;;;5071613;28;19927;-67
2022/03/24 14:10:38;;;;;;;;;;;22.30;52.90;;;;;;5063494;28;19928;-68
2022/03/24 14:13:11;;;;;;;;;;;22.60;51.30;;;;;;5062984;28;19921;-68
2022/03/24 14:15:38;;;;;;;;;;;22.70;52.10;;;;;;5062750;28;19959;-68
2022/03/24 14:18:15;;;;;;;;;;;23.00;52.50;;;;;;5063354;28;19920;-68
2022/03/24 14:20:42;;;;;;;;;;;22.90;52.00;;;;;;5063218;28;19921;-67
2022/03/24 14:23:09;;;;;;;;;;;22.70;52.50;;;;;;5062797;28;19928;-67
2022/03/24 14:25:36;;;;;;;;;;;22.50;51.30;;;;;;5062003;28;19927;-68
2022/03/24 14:28:03;;;;;;;;;;;22.50;53.30;;;;;;5063548;28;19951;-67
2022/03/24 14:30:32;;;;;;;;;;;22.40;51.70;;;;;;5075060;28;19920;-67
2022/03/24 14:33:00;;;;;;;;;;;22.50;50.70;;;;;;5063549;28;19983;-67
2022/03/24 14:35:28;;;;;;;;;;;22.20;49.60;;;;;;5062963;28;19966;-68
2022/03/24 14:37:56;;;;;;;;;;;21.90;50.70;;;;;;5083732;28;19921;-67